sensor_id;sensor_type;location;lat;lon;timestamp;P1;durP1;ratioP1;P2;durP2;ratioP2
58681;SDS011;44460;40.162;18.294;2022-12-11T00:01:21;27.00;;;3.92;;
58681;SDS011;44460;40.162;18.294;2022-12-11T00:03:46;21.83;;;3.75;;
58681;SDS011;44460;40.162;18.294;2022-12-11T00:06:13;25.88;;;4.38;;
58681;SDS011;44460;40.162;18.294;2022-12-11T00:08:39;23.63;;;4.47;;
58681;SDS011;44460;40.162;18.294;2022-12-11T00:11:07;30.80;;;4.65;;
58681;SDS011;44460;40.162;18.294;2022-12-11T00:13:32;23.83;;;4.30;;
58681;SDS011;44460;40.162;18.294;2022-12-11T00:15:58;21.35;;;4.25;;
58681;SDS011;44460;40.162;18.294;2022-12-11T00:18:23;28.27;;;4.50;;
58681;SDS011;44460;40.162;18.294;2022-12-11T00:20:49;26.15;;;5.20;;
58681;SDS011;44460;40.162;18.294;2022-12-11T00:23:14;20.30;;;3.63;;
58681;SDS011;44460;40.162;18.294;2022-12-11T00:25:44;22.38;;;3.35;;
58681;SDS011;44460;40.162;18.294;2022-12-11T00:28:13;20.45;;;3.70;;
58681;SDS011;44460;40.162;18.294;2022-12-11T00:30:40;20.10;;;4.82;;
58681;SDS011;44460;40.162;18.294;2022-12-11T00:33:06;21.73;;;4.35;;
58681;SDS011;44460;40.162;18.294;2022-12-11T00:35:32;20.17;;;4.53;;
58681;SDS011;44460;40.162;18.294;2022-12-11T00:37:57;22.15;;;5.32;;
58681;SDS011;44460;40.162;18.294;2022-12-11T00:40:23;21.88;;;4.10;;
58681;SDS011;44460;40.162;18.294;2022-12-11T00:42:48;22.77;;;3.92;;
58681;SDS011;44460;40.162;18.294;2022-12-11T00:45:14;30.15;;;4.25;;
58681;SDS011;44460;40.162;18.294;2022-12-11T00:47:39;24.48;;;5.05;;
58681;SDS011;44460;40.162;18.294;2022-12-11T00:50:05;24.50;;;4.53;;
58681;SDS011;44460;40.162;18.294;2022-12-11T00:52:30;22.38;;;3.30;;
58681;SDS011;44460;40.162;18.294;2022-12-11T00:54:56;29.50;;;4.43;;
58681;SDS011;44460;40.162;18.294;2022-12-11T00:57:21;28.35;;;3.88;;
58681;SDS011;44460;40.162;18.294;2022-12-11T00:59:47;28.17;;;5.68;;
58681;SDS011;44460;40.162;18.294;2022-12-11T01:02:12;17.55;;;3.60;;
58681;SDS011;44460;40.162;18.294;2022-12-11T01:04:37;32.33;;;4.32;;
58681;SDS011;44460;40.162;18.294;2022-12-11T01:07:03;19.65;;;3.97;;
58681;SDS011;44460;40.162;18.294;2022-12-11T01:09:28;25.77;;;4.80;;
58681;SDS011;44460;40.162;18.294;2022-12-11T01:12:13;25.13;;;4.78;;
58681;SDS011;44460;40.162;18.294;2022-12-11T01:14:38;24.65;;;3.80;;
58681;SDS011;44460;40.162;18.294;2022-12-11T01:17:03;30.00;;;4.07;;
58681;SDS011;44460;40.162;18.294;2022-12-11T01:19:29;25.13;;;3.88;;
58681;SDS011;44460;40.162;18.294;2022-12-11T01:21:54;20.55;;;4.32;;
58681;SDS011;44460;40.162;18.294;2022-12-11T01:24:20;24.08;;;4.00;;
58681;SDS011;44460;40.162;18.294;2022-12-11T01:26:45;22.38;;;4.40;;
58681;SDS011;44460;40.162;18.294;2022-12-11T01:29:11;24.85;;;3.75;;
58681;SDS011;44460;40.162;18.294;2022-12-11T01:31:36;24.08;;;4.38;;
58681;SDS011;44460;40.162;18.294;2022-12-11T01:34:02;20.08;;;4.22;;
58681;SDS011;44460;40.162;18.294;2022-12-11T01:36:28;18.20;;;3.70;;
58681;SDS011;44460;40.162;18.294;2022-12-11T01:38:53;21.40;;;4.25;;
58681;SDS011;44460;40.162;18.294;2022-12-11T01:41:19;25.35;;;4.13;;
58681;SDS011;44460;40.162;18.294;2022-12-11T01:46:39;24.05;;;3.70;;
58681;SDS011;44460;40.162;18.294;2022-12-11T01:49:07;22.40;;;3.97;;
58681;SDS011;44460;40.162;18.294;2022-12-11T01:51:40;21.60;;;4.32;;
58681;SDS011;44460;40.162;18.294;2022-12-11T01:54:09;18.40;;;3.53;;
58681;SDS011;44460;40.162;18.294;2022-12-11T01:56:35;29.70;;;4.05;;
58681;SDS011;44460;40.162;18.294;2022-12-11T01:59:04;30.50;;;4.57;;
58681;SDS011;44460;40.162;18.294;2022-12-11T02:04:00;22.63;;;3.63;;
58681;SDS011;44460;40.162;18.294;2022-12-11T02:06:33;31.65;;;4.10;;
58681;SDS011;44460;40.162;18.294;2022-12-11T02:08:58;24.05;;;4.32;;
58681;SDS011;44460;40.162;18.294;2022-12-11T02:11:25;29.15;;;4.50;;
58681;SDS011;44460;40.162;18.294;2022-12-11T02:14:12;21.73;;;4.00;;
58681;SDS011;44460;40.162;18.294;2022-12-11T02:16:50;23.20;;;4.22;;
58681;SDS011;44460;40.162;18.294;2022-12-11T02:19:28;20.70;;;5.00;;
58681;SDS011;44460;40.162;18.294;2022-12-11T02:21:55;27.10;;;4.40;;
58681;SDS011;44460;40.162;18.294;2022-12-11T02:29:25;29.77;;;4.75;;
58681;SDS011;44460;40.162;18.294;2022-12-11T02:32:14;25.35;;;4.00;;
58681;SDS011;44460;40.162;18.294;2022-12-11T02:34:41;30.65;;;4.72;;
58681;SDS011;44460;40.162;18.294;2022-12-11T02:37:14;26.70;;;3.85;;
58681;SDS011;44460;40.162;18.294;2022-12-11T02:39:40;22.45;;;3.75;;
58681;SDS011;44460;40.162;18.294;2022-12-11T02:42:07;25.05;;;4.30;;
58681;SDS011;44460;40.162;18.294;2022-12-11T02:44:34;19.42;;;4.15;;
58681;SDS011;44460;40.162;18.294;2022-12-11T02:46:59;20.67;;;4.50;;
58681;SDS011;44460;40.162;18.294;2022-12-11T02:49:25;22.42;;;3.92;;
58681;SDS011;44460;40.162;18.294;2022-12-11T02:51:52;22.55;;;4.47;;
58681;SDS011;44460;40.162;18.294;2022-12-11T02:54:20;23.08;;;4.88;;
58681;SDS011;44460;40.162;18.294;2022-12-11T02:56:52;24.10;;;3.42;;
58681;SDS011;44460;40.162;18.294;2022-12-11T02:59:20;23.95;;;3.90;;
58681;SDS011;44460;40.162;18.294;2022-12-11T03:01:47;27.08;;;4.30;;
58681;SDS011;44460;40.162;18.294;2022-12-11T03:04:13;26.17;;;3.63;;
58681;SDS011;44460;40.162;18.294;2022-12-11T03:06:40;21.92;;;3.35;;
58681;SDS011;44460;40.162;18.294;2022-12-11T03:09:07;20.25;;;3.75;;
58681;SDS011;44460;40.162;18.294;2022-12-11T03:11:32;21.17;;;3.08;;
58681;SDS011;44460;40.162;18.294;2022-12-11T03:13:58;19.40;;;3.75;;
58681;SDS011;44460;40.162;18.294;2022-12-11T03:16:33;13.75;;;2.42;;
58681;SDS011;44460;40.162;18.294;2022-12-11T03:21:48;20.00;;;2.63;;
58681;SDS011;44460;40.162;18.294;2022-12-11T03:24:19;24.10;;;3.10;;
58681;SDS011;44460;40.162;18.294;2022-12-11T03:26:48;21.92;;;3.15;;
58681;SDS011;44460;40.162;18.294;2022-12-11T03:29:17;15.98;;;2.88;;
58681;SDS011;44460;40.162;18.294;2022-12-11T03:32:18;20.05;;;4.20;;
58681;SDS011;44460;40.162;18.294;2022-12-11T03:37:04;18.98;;;2.92;;
58681;SDS011;44460;40.162;18.294;2022-12-11T03:39:31;19.20;;;3.60;;
58681;SDS011;44460;40.162;18.294;2022-12-11T03:41:58;15.33;;;2.47;;
58681;SDS011;44460;40.162;18.294;2022-12-11T03:46:50;16.23;;;2.80;;
58681;SDS011;44460;40.162;18.294;2022-12-11T03:49:18;18.47;;;2.73;;
58681;SDS011;44460;40.162;18.294;2022-12-11T03:51:45;13.50;;;1.92;;
58681;SDS011;44460;40.162;18.294;2022-12-11T03:54:12;15.85;;;2.50;;
58681;SDS011;44460;40.162;18.294;2022-12-11T03:56:38;13.60;;;3.13;;
58681;SDS011;44460;40.162;18.294;2022-12-11T03:59:05;13.73;;;2.63;;
58681;SDS011;44460;40.162;18.294;2022-12-11T04:01:30;13.68;;;2.42;;
58681;SDS011;44460;40.162;18.294;2022-12-11T04:03:55;23.02;;;3.03;;
58681;SDS011;44460;40.162;18.294;2022-12-11T04:06:21;25.23;;;2.75;;
58681;SDS011;44460;40.162;18.294;2022-12-11T04:08:46;12.82;;;2.58;;
58681;SDS011;44460;40.162;18.294;2022-12-11T04:11:12;23.55;;;4.30;;
58681;SDS011;44460;40.162;18.294;2022-12-11T04:13:56;20.30;;;3.15;;
58681;SDS011;44460;40.162;18.294;2022-12-11T04:16:39;20.00;;;3.92;;
58681;SDS011;44460;40.162;18.294;2022-12-11T04:19:05;19.23;;;2.97;;
58681;SDS011;44460;40.162;18.294;2022-12-11T04:21:49;19.55;;;3.35;;
58681;SDS011;44460;40.162;18.294;2022-12-11T04:24:33;21.35;;;3.78;;
58681;SDS011;44460;40.162;18.294;2022-12-11T04:26:58;19.75;;;4.03;;
58681;SDS011;44460;40.162;18.294;2022-12-11T04:29:24;13.85;;;2.58;;
58681;SDS011;44460;40.162;18.294;2022-12-11T04:31:49;19.40;;;3.10;;
58681;SDS011;44460;40.162;18.294;2022-12-11T04:34:15;21.98;;;3.45;;
58681;SDS011;44460;40.162;18.294;2022-12-11T04:36:41;21.73;;;2.95;;
58681;SDS011;44460;40.162;18.294;2022-12-11T04:39:06;15.73;;;3.60;;
58681;SDS011;44460;40.162;18.294;2022-12-11T04:41:32;15.80;;;2.50;;
58681;SDS011;44460;40.162;18.294;2022-12-11T04:43:58;24.42;;;4.05;;
58681;SDS011;44460;40.162;18.294;2022-12-11T04:46:23;21.02;;;3.72;;
58681;SDS011;44460;40.162;18.294;2022-12-11T04:48:49;18.08;;;3.70;;
58681;SDS011;44460;40.162;18.294;2022-12-11T04:51:15;17.90;;;3.20;;
58681;SDS011;44460;40.162;18.294;2022-12-11T04:53:41;26.65;;;4.30;;
58681;SDS011;44460;40.162;18.294;2022-12-11T04:56:07;16.10;;;3.10;;
58681;SDS011;44460;40.162;18.294;2022-12-11T04:58:33;18.58;;;3.35;;
58681;SDS011;44460;40.162;18.294;2022-12-11T05:01:00;23.50;;;3.20;;
58681;SDS011;44460;40.162;18.294;2022-12-11T05:03:25;18.83;;;3.53;;
58681;SDS011;44460;40.162;18.294;2022-12-11T05:05:51;15.95;;;4.38;;
58681;SDS011;44460;40.162;18.294;2022-12-11T05:08:17;21.50;;;3.17;;
58681;SDS011;44460;40.162;18.294;2022-12-11T05:10:43;27.08;;;4.07;;
58681;SDS011;44460;40.162;18.294;2022-12-11T05:13:09;25.90;;;4.32;;
58681;SDS011;44460;40.162;18.294;2022-12-11T05:15:37;21.70;;;3.45;;
58681;SDS011;44460;40.162;18.294;2022-12-11T05:18:03;22.50;;;3.67;;
58681;SDS011;44460;40.162;18.294;2022-12-11T05:20:28;19.33;;;3.47;;
58681;SDS011;44460;40.162;18.294;2022-12-11T05:22:54;16.83;;;4.10;;
58681;SDS011;44460;40.162;18.294;2022-12-11T05:25:19;19.30;;;4.03;;
58681;SDS011;44460;40.162;18.294;2022-12-11T05:27:44;11.90;;;2.38;;
58681;SDS011;44460;40.162;18.294;2022-12-11T05:30:10;14.25;;;2.22;;
58681;SDS011;44460;40.162;18.294;2022-12-11T05:32:35;10.98;;;2.13;;
58681;SDS011;44460;40.162;18.294;2022-12-11T05:35:01;17.27;;;3.53;;
58681;SDS011;44460;40.162;18.294;2022-12-11T05:37:28;9.88;;;1.77;;
58681;SDS011;44460;40.162;18.294;2022-12-11T05:39:53;13.18;;;2.08;;
58681;SDS011;44460;40.162;18.294;2022-12-11T05:42:19;15.40;;;2.55;;
58681;SDS011;44460;40.162;18.294;2022-12-11T05:44:44;15.75;;;2.83;;
58681;SDS011;44460;40.162;18.294;2022-12-11T05:47:09;7.30;;;1.77;;
58681;SDS011;44460;40.162;18.294;2022-12-11T05:49:35;14.98;;;2.30;;
58681;SDS011;44460;40.162;18.294;2022-12-11T05:52:00;14.80;;;2.38;;
58681;SDS011;44460;40.162;18.294;2022-12-11T05:54:26;7.82;;;1.50;;
58681;SDS011;44460;40.162;18.294;2022-12-11T05:56:51;7.68;;;1.70;;
58681;SDS011;44460;40.162;18.294;2022-12-11T05:59:16;11.00;;;2.35;;
58681;SDS011;44460;40.162;18.294;2022-12-11T06:01:43;9.85;;;1.75;;
58681;SDS011;44460;40.162;18.294;2022-12-11T06:04:09;11.45;;;1.90;;
58681;SDS011;44460;40.162;18.294;2022-12-11T06:06:35;8.30;;;1.63;;
58681;SDS011;44460;40.162;18.294;2022-12-11T06:09:02;13.07;;;2.65;;
58681;SDS011;44460;40.162;18.294;2022-12-11T06:11:28;7.63;;;1.85;;
58681;SDS011;44460;40.162;18.294;2022-12-11T06:13:54;13.50;;;2.17;;
58681;SDS011;44460;40.162;18.294;2022-12-11T06:16:20;10.48;;;1.92;;
58681;SDS011;44460;40.162;18.294;2022-12-11T06:18:46;11.25;;;1.77;;
58681;SDS011;44460;40.162;18.294;2022-12-11T06:21:18;12.60;;;2.17;;
58681;SDS011;44460;40.162;18.294;2022-12-11T06:23:44;16.55;;;2.10;;
58681;SDS011;44460;40.162;18.294;2022-12-11T06:26:11;16.10;;;2.90;;
58681;SDS011;44460;40.162;18.294;2022-12-11T06:28:36;10.80;;;1.85;;
58681;SDS011;44460;40.162;18.294;2022-12-11T06:31:02;10.68;;;1.77;;
58681;SDS011;44460;40.162;18.294;2022-12-11T06:33:28;14.23;;;2.20;;
58681;SDS011;44460;40.162;18.294;2022-12-11T06:35:53;11.55;;;4.07;;
58681;SDS011;44460;40.162;18.294;2022-12-11T06:38:19;5.45;;;2.22;;
58681;SDS011;44460;40.162;18.294;2022-12-11T06:40:44;14.07;;;4.90;;
58681;SDS011;44460;40.162;18.294;2022-12-11T06:43:09;9.00;;;1.48;;
58681;SDS011;44460;40.162;18.294;2022-12-11T06:45:35;10.45;;;3.28;;
58681;SDS011;44460;40.162;18.294;2022-12-11T06:48:01;11.30;;;4.35;;
58681;SDS011;44460;40.162;18.294;2022-12-11T06:50:26;5.47;;;2.00;;
58681;SDS011;44460;40.162;18.294;2022-12-11T06:52:51;11.25;;;2.65;;
58681;SDS011;44460;40.162;18.294;2022-12-11T06:55:17;7.78;;;2.22;;
58681;SDS011;44460;40.162;18.294;2022-12-11T06:57:42;8.15;;;2.50;;
58681;SDS011;44460;40.162;18.294;2022-12-11T07:00:08;8.80;;;3.22;;
58681;SDS011;44460;40.162;18.294;2022-12-11T07:02:33;8.10;;;3.30;;
58681;SDS011;44460;40.162;18.294;2022-12-11T07:04:59;6.68;;;1.98;;
58681;SDS011;44460;40.162;18.294;2022-12-11T07:07:24;5.78;;;1.10;;
58681;SDS011;44460;40.162;18.294;2022-12-11T07:09:50;5.70;;;1.40;;
58681;SDS011;44460;40.162;18.294;2022-12-11T07:12:15;6.75;;;1.35;;
58681;SDS011;44460;40.162;18.294;2022-12-11T07:14:41;3.50;;;1.10;;
58681;SDS011;44460;40.162;18.294;2022-12-11T07:17:06;6.00;;;1.40;;
58681;SDS011;44460;40.162;18.294;2022-12-11T07:19:32;6.85;;;1.52;;
58681;SDS011;44460;40.162;18.294;2022-12-11T07:21:58;12.43;;;2.38;;
58681;SDS011;44460;40.162;18.294;2022-12-11T07:24:23;5.53;;;1.90;;
58681;SDS011;44460;40.162;18.294;2022-12-11T07:26:49;8.93;;;1.88;;
58681;SDS011;44460;40.162;18.294;2022-12-11T07:29:14;8.13;;;1.85;;
58681;SDS011;44460;40.162;18.294;2022-12-11T07:31:40;10.60;;;1.90;;
58681;SDS011;44460;40.162;18.294;2022-12-11T07:34:05;6.35;;;1.77;;
58681;SDS011;44460;40.162;18.294;2022-12-11T07:36:31;8.32;;;1.90;;
58681;SDS011;44460;40.162;18.294;2022-12-11T07:38:57;14.07;;;2.90;;
58681;SDS011;44460;40.162;18.294;2022-12-11T07:41:23;12.48;;;2.17;;
58681;SDS011;44460;40.162;18.294;2022-12-11T07:43:52;4.90;;;1.23;;
58681;SDS011;44460;40.162;18.294;2022-12-11T07:46:19;6.07;;;1.75;;
58681;SDS011;44460;40.162;18.294;2022-12-11T07:48:45;10.75;;;2.63;;
58681;SDS011;44460;40.162;18.294;2022-12-11T07:51:21;8.52;;;2.35;;
58681;SDS011;44460;40.162;18.294;2022-12-11T07:53:49;6.20;;;1.70;;
58681;SDS011;44460;40.162;18.294;2022-12-11T07:56:15;5.97;;;1.48;;
58681;SDS011;44460;40.162;18.294;2022-12-11T07:58:41;4.20;;;1.73;;
58681;SDS011;44460;40.162;18.294;2022-12-11T08:01:12;5.22;;;1.52;;
58681;SDS011;44460;40.162;18.294;2022-12-11T08:03:38;7.15;;;1.42;;
58681;SDS011;44460;40.162;18.294;2022-12-11T08:06:03;8.93;;;1.55;;
58681;SDS011;44460;40.162;18.294;2022-12-11T08:08:29;6.95;;;1.83;;
58681;SDS011;44460;40.162;18.294;2022-12-11T08:11:00;12.18;;;2.75;;
58681;SDS011;44460;40.162;18.294;2022-12-11T08:13:25;7.70;;;2.17;;
58681;SDS011;44460;40.162;18.294;2022-12-11T08:15:51;3.78;;;1.45;;
58681;SDS011;44460;40.162;18.294;2022-12-11T08:18:17;6.10;;;1.08;;
58681;SDS011;44460;40.162;18.294;2022-12-11T08:20:42;10.10;;;4.47;;
58681;SDS011;44460;40.162;18.294;2022-12-11T08:23:09;12.93;;;3.72;;
58681;SDS011;44460;40.162;18.294;2022-12-11T08:25:35;7.75;;;1.90;;
58681;SDS011;44460;40.162;18.294;2022-12-11T08:28:00;8.20;;;2.75;;
58681;SDS011;44460;40.162;18.294;2022-12-11T08:30:26;4.57;;;1.50;;
58681;SDS011;44460;40.162;18.294;2022-12-11T08:32:51;7.97;;;1.90;;
58681;SDS011;44460;40.162;18.294;2022-12-11T08:35:18;6.95;;;1.85;;
58681;SDS011;44460;40.162;18.294;2022-12-11T08:37:44;3.90;;;1.70;;
58681;SDS011;44460;40.162;18.294;2022-12-11T08:40:09;7.47;;;2.47;;
58681;SDS011;44460;40.162;18.294;2022-12-11T08:42:36;2.95;;;1.55;;
58681;SDS011;44460;40.162;18.294;2022-12-11T08:45:02;5.20;;;1.92;;
58681;SDS011;44460;40.162;18.294;2022-12-11T08:47:27;6.78;;;2.22;;
58681;SDS011;44460;40.162;18.294;2022-12-11T08:49:53;7.30;;;2.60;;
58681;SDS011;44460;40.162;18.294;2022-12-11T08:52:18;5.43;;;1.70;;
58681;SDS011;44460;40.162;18.294;2022-12-11T08:54:44;8.90;;;1.75;;
58681;SDS011;44460;40.162;18.294;2022-12-11T08:57:09;7.47;;;1.52;;
58681;SDS011;44460;40.162;18.294;2022-12-11T08:59:34;5.30;;;1.50;;
58681;SDS011;44460;40.162;18.294;2022-12-11T09:02:00;6.28;;;2.17;;
58681;SDS011;44460;40.162;18.294;2022-12-11T09:04:25;6.10;;;2.17;;
58681;SDS011;44460;40.162;18.294;2022-12-11T09:06:51;7.40;;;1.65;;
58681;SDS011;44460;40.162;18.294;2022-12-11T09:09:16;8.05;;;1.90;;
58681;SDS011;44460;40.162;18.294;2022-12-11T09:11:42;7.18;;;1.80;;
58681;SDS011;44460;40.162;18.294;2022-12-11T09:14:08;5.55;;;2.35;;
58681;SDS011;44460;40.162;18.294;2022-12-11T09:16:34;6.88;;;2.40;;
58681;SDS011;44460;40.162;18.294;2022-12-11T09:19:02;7.57;;;1.67;;
58681;SDS011;44460;40.162;18.294;2022-12-11T09:21:28;3.97;;;1.50;;
58681;SDS011;44460;40.162;18.294;2022-12-11T09:23:54;4.75;;;1.98;;
58681;SDS011;44460;40.162;18.294;2022-12-11T09:26:20;6.40;;;2.42;;
58681;SDS011;44460;40.162;18.294;2022-12-11T09:28:45;4.22;;;1.45;;
58681;SDS011;44460;40.162;18.294;2022-12-11T09:31:15;6.20;;;1.77;;
58681;SDS011;44460;40.162;18.294;2022-12-11T09:33:41;5.47;;;2.10;;
58681;SDS011;44460;40.162;18.294;2022-12-11T09:36:07;5.85;;;2.25;;
58681;SDS011;44460;40.162;18.294;2022-12-11T09:38:33;4.47;;;2.17;;
58681;SDS011;44460;40.162;18.294;2022-12-11T09:40:58;5.47;;;1.40;;
58681;SDS011;44460;40.162;18.294;2022-12-11T09:43:37;5.47;;;1.67;;
58681;SDS011;44460;40.162;18.294;2022-12-11T09:46:06;3.67;;;1.40;;
58681;SDS011;44460;40.162;18.294;2022-12-11T09:48:34;2.60;;;1.30;;
58681;SDS011;44460;40.162;18.294;2022-12-11T09:51:00;2.88;;;1.58;;
58681;SDS011;44460;40.162;18.294;2022-12-11T09:53:30;6.13;;;1.90;;
58681;SDS011;44460;40.162;18.294;2022-12-11T10:00:53;3.55;;;1.35;;
58681;SDS011;44460;40.162;18.294;2022-12-11T10:08:44;4.70;;;1.80;;
58681;SDS011;44460;40.162;18.294;2022-12-11T10:14:12;1.90;;;1.00;;
58681;SDS011;44460;40.162;18.294;2022-12-11T10:16:56;3.03;;;1.42;;
58681;SDS011;44460;40.162;18.294;2022-12-11T10:19:25;11.55;;;3.08;;
58681;SDS011;44460;40.162;18.294;2022-12-11T10:21:52;6.00;;;1.50;;
58681;SDS011;44460;40.162;18.294;2022-12-11T10:26:46;6.45;;;2.50;;
58681;SDS011;44460;40.162;18.294;2022-12-11T10:29:12;4.05;;;1.60;;
58681;SDS011;44460;40.162;18.294;2022-12-11T10:31:55;4.80;;;1.42;;
58681;SDS011;44460;40.162;18.294;2022-12-11T10:36:46;3.42;;;1.52;;
58681;SDS011;44460;40.162;18.294;2022-12-11T10:39:15;7.13;;;2.58;;
58681;SDS011;44460;40.162;18.294;2022-12-11T10:41:42;7.57;;;2.20;;
58681;SDS011;44460;40.162;18.294;2022-12-11T10:46:43;6.10;;;2.10;;
58681;SDS011;44460;40.162;18.294;2022-12-11T10:49:22;5.45;;;2.40;;
58681;SDS011;44460;40.162;18.294;2022-12-11T10:51:48;8.60;;;2.28;;
58681;SDS011;44460;40.162;18.294;2022-12-11T10:54:31;7.15;;;1.80;;
58681;SDS011;44460;40.162;18.294;2022-12-11T10:56:57;6.03;;;1.58;;
58681;SDS011;44460;40.162;18.294;2022-12-11T10:59:29;9.00;;;2.40;;
58681;SDS011;44460;40.162;18.294;2022-12-11T11:01:57;5.53;;;1.63;;
58681;SDS011;44460;40.162;18.294;2022-12-11T11:04:24;8.07;;;1.85;;
58681;SDS011;44460;40.162;18.294;2022-12-11T11:07:01;7.53;;;2.28;;
58681;SDS011;44460;40.162;18.294;2022-12-11T11:09:35;11.05;;;2.03;;
58681;SDS011;44460;40.162;18.294;2022-12-11T11:12:01;8.75;;;2.13;;
58681;SDS011;44460;40.162;18.294;2022-12-11T11:14:27;8.30;;;2.20;;
58681;SDS011;44460;40.162;18.294;2022-12-11T11:16:55;13.57;;;2.95;;
58681;SDS011;44460;40.162;18.294;2022-12-11T11:19:31;18.00;;;3.40;;
58681;SDS011;44460;40.162;18.294;2022-12-11T11:26:54;25.27;;;4.63;;
58681;SDS011;44460;40.162;18.294;2022-12-11T11:29:30;20.90;;;4.82;;
58681;SDS011;44460;40.162;18.294;2022-12-11T11:31:56;20.50;;;4.60;;
58681;SDS011;44460;40.162;18.294;2022-12-11T11:34:21;20.90;;;5.38;;
58681;SDS011;44460;40.162;18.294;2022-12-11T11:36:57;25.45;;;4.18;;
58681;SDS011;44460;40.162;18.294;2022-12-11T11:39:34;17.00;;;4.18;;
58681;SDS011;44460;40.162;18.294;2022-12-11T11:42:21;19.77;;;3.88;;
58681;SDS011;44460;40.162;18.294;2022-12-11T11:45:00;19.42;;;4.32;;
58681;SDS011;44460;40.162;18.294;2022-12-11T11:47:28;22.65;;;4.60;;
58681;SDS011;44460;40.162;18.294;2022-12-11T11:49:58;17.33;;;4.47;;
58681;SDS011;44460;40.162;18.294;2022-12-11T11:52:28;21.98;;;3.97;;
58681;SDS011;44460;40.162;18.294;2022-12-11T11:57:38;20.13;;;4.40;;
58681;SDS011;44460;40.162;18.294;2022-12-11T12:00:19;16.88;;;4.05;;
58681;SDS011;44460;40.162;18.294;2022-12-11T12:02:46;17.83;;;4.18;;
58681;SDS011;44460;40.162;18.294;2022-12-11T12:05:13;17.45;;;4.90;;
58681;SDS011;44460;40.162;18.294;2022-12-11T12:15:52;30.75;;;9.15;;
58681;SDS011;44460;40.162;18.294;2022-12-11T12:18:42;26.10;;;4.78;;
58681;SDS011;44460;40.162;18.294;2022-12-11T12:31:11;16.75;;;4.40;;
58681;SDS011;44460;40.162;18.294;2022-12-11T12:36:13;33.42;;;7.03;;
58681;SDS011;44460;40.162;18.294;2022-12-11T12:38:45;28.10;;;5.00;;
58681;SDS011;44460;40.162;18.294;2022-12-11T12:46:42;23.37;;;5.30;;
58681;SDS011;44460;40.162;18.294;2022-12-11T12:49:14;25.75;;;5.95;;
58681;SDS011;44460;40.162;18.294;2022-12-11T12:51:41;20.83;;;5.25;;
58681;SDS011;44460;40.162;18.294;2022-12-11T12:54:08;24.85;;;7.72;;
58681;SDS011;44460;40.162;18.294;2022-12-11T12:56:36;21.73;;;6.13;;
58681;SDS011;44460;40.162;18.294;2022-12-11T12:59:02;31.88;;;7.68;;
58681;SDS011;44460;40.162;18.294;2022-12-11T13:01:27;25.45;;;7.82;;
58681;SDS011;44460;40.162;18.294;2022-12-11T13:04:01;30.38;;;7.20;;
58681;SDS011;44460;40.162;18.294;2022-12-11T13:08:52;27.90;;;8.55;;
58681;SDS011;44460;40.162;18.294;2022-12-11T13:11:18;34.97;;;9.52;;
58681;SDS011;44460;40.162;18.294;2022-12-11T13:13:45;31.00;;;6.32;;
58681;SDS011;44460;40.162;18.294;2022-12-11T13:18:41;34.08;;;9.38;;
58681;SDS011;44460;40.162;18.294;2022-12-11T13:23:48;36.15;;;7.80;;
58681;SDS011;44460;40.162;18.294;2022-12-11T13:26:15;25.45;;;7.35;;
58681;SDS011;44460;40.162;18.294;2022-12-11T13:28:51;33.08;;;7.18;;
58681;SDS011;44460;40.162;18.294;2022-12-11T13:33:43;38.45;;;9.68;;
58681;SDS011;44460;40.162;18.294;2022-12-11T13:38:36;22.33;;;4.90;;
58681;SDS011;44460;40.162;18.294;2022-12-11T13:41:02;28.67;;;6.47;;
58681;SDS011;44460;40.162;18.294;2022-12-11T13:43:30;24.90;;;6.05;;
58681;SDS011;44460;40.162;18.294;2022-12-11T13:45:57;22.20;;;4.33;;
58681;SDS011;44460;40.162;18.294;2022-12-11T13:50:58;24.58;;;6.57;;
58681;SDS011;44460;40.162;18.294;2022-12-11T13:53:24;30.67;;;8.57;;
58681;SDS011;44460;40.162;18.294;2022-12-11T13:56:03;23.17;;;4.82;;
58681;SDS011;44460;40.162;18.294;2022-12-11T13:58:29;25.08;;;7.10;;
58681;SDS011;44460;40.162;18.294;2022-12-11T14:03:23;55.22;;;20.70;;
58681;SDS011;44460;40.162;18.294;2022-12-11T14:05:49;82.30;;;30.45;;
58681;SDS011;44460;40.162;18.294;2022-12-11T14:08:19;80.60;;;31.17;;
58681;SDS011;44460;40.162;18.294;2022-12-11T14:10:49;60.92;;;21.67;;
58681;SDS011;44460;40.162;18.294;2022-12-11T14:13:21;117.10;;;36.65;;
58681;SDS011;44460;40.162;18.294;2022-12-11T14:15:47;178.35;;;53.28;;
58681;SDS011;44460;40.162;18.294;2022-12-11T14:18:17;184.35;;;57.22;;
58681;SDS011;44460;40.162;18.294;2022-12-11T14:20:44;217.45;;;67.75;;
58681;SDS011;44460;40.162;18.294;2022-12-11T14:23:15;178.70;;;51.47;;
58681;SDS011;44460;40.162;18.294;2022-12-11T14:25:41;71.97;;;21.27;;
58681;SDS011;44460;40.162;18.294;2022-12-11T14:28:14;55.85;;;16.23;;
58681;SDS011;44460;40.162;18.294;2022-12-11T14:30:44;31.98;;;9.40;;
58681;SDS011;44460;40.162;18.294;2022-12-11T14:33:10;25.42;;;7.47;;
58681;SDS011;44460;40.162;18.294;2022-12-11T14:35:37;28.25;;;10.07;;
58681;SDS011;44460;40.162;18.294;2022-12-11T14:40:34;33.72;;;9.27;;
58681;SDS011;44460;40.162;18.294;2022-12-11T14:43:02;35.00;;;12.05;;
58681;SDS011;44460;40.162;18.294;2022-12-11T14:45:32;38.78;;;9.43;;
58681;SDS011;44460;40.162;18.294;2022-12-11T14:47:59;20.77;;;6.10;;
58681;SDS011;44460;40.162;18.294;2022-12-11T14:50:26;24.08;;;6.55;;
58681;SDS011;44460;40.162;18.294;2022-12-11T14:52:57;29.80;;;5.88;;
58681;SDS011;44460;40.162;18.294;2022-12-11T14:55:30;32.67;;;9.02;;
58681;SDS011;44460;40.162;18.294;2022-12-11T14:58:01;52.95;;;17.40;;
58681;SDS011;44460;40.162;18.294;2022-12-11T15:00:31;69.45;;;22.02;;
58681;SDS011;44460;40.162;18.294;2022-12-11T15:02:59;104.35;;;35.25;;
58681;SDS011;44460;40.162;18.294;2022-12-11T15:05:25;113.65;;;35.42;;
58681;SDS011;44460;40.162;18.294;2022-12-11T15:10:35;48.38;;;17.63;;
58681;SDS011;44460;40.162;18.294;2022-12-11T15:13:04;41.50;;;15.98;;
58681;SDS011;44460;40.162;18.294;2022-12-11T15:15:31;28.45;;;7.75;;
58681;SDS011;44460;40.162;18.294;2022-12-11T15:17:57;29.80;;;10.50;;
58681;SDS011;44460;40.162;18.294;2022-12-11T15:20:24;53.67;;;18.67;;
58681;SDS011;44460;40.162;18.294;2022-12-11T15:22:50;41.88;;;14.02;;
58681;SDS011;44460;40.162;18.294;2022-12-11T15:25:17;29.00;;;10.05;;
58681;SDS011;44460;40.162;18.294;2022-12-11T15:27:43;43.28;;;10.80;;
58681;SDS011;44460;40.162;18.294;2022-12-11T15:32:44;35.67;;;10.93;;
58681;SDS011;44460;40.162;18.294;2022-12-11T15:35:23;47.42;;;13.02;;
58681;SDS011;44460;40.162;18.294;2022-12-11T15:37:52;56.75;;;17.00;;
58681;SDS011;44460;40.162;18.294;2022-12-11T15:40:18;69.22;;;22.40;;
58681;SDS011;44460;40.162;18.294;2022-12-11T15:42:44;55.20;;;20.90;;
58681;SDS011;44460;40.162;18.294;2022-12-11T15:45:20;59.20;;;20.88;;
58681;SDS011;44460;40.162;18.294;2022-12-11T15:47:46;39.05;;;15.25;;
58681;SDS011;44460;40.162;18.294;2022-12-11T15:50:16;35.60;;;15.07;;
58681;SDS011;44460;40.162;18.294;2022-12-11T15:52:42;30.27;;;9.65;;
58681;SDS011;44460;40.162;18.294;2022-12-11T15:55:08;25.50;;;9.57;;
58681;SDS011;44460;40.162;18.294;2022-12-11T15:57:33;21.85;;;7.50;;
58681;SDS011;44460;40.162;18.294;2022-12-11T15:59:59;21.65;;;8.15;;
58681;SDS011;44460;40.162;18.294;2022-12-11T16:02:24;24.88;;;8.65;;
58681;SDS011;44460;40.162;18.294;2022-12-11T16:04:54;39.13;;;17.08;;